sensor_id;sensor_type;location;lat;lon;timestamp;pressure;altitude;pressure_sealevel;temperature
77789;BMP280;70537;44.384;0.512;2023-08-06T00:02:24;101778.81;;;18.59
77789;BMP280;70537;44.384;0.512;2023-08-06T00:04:49;101773.56;;;18.56
77789;BMP280;70537;44.384;0.512;2023-08-06T00:07:14;101763.09;;;18.54
77789;BMP280;70537;44.384;0.512;2023-08-06T00:09:40;101771.84;;;18.53
77789;BMP280;70537;44.384;0.512;2023-08-06T00:12:06;101767.91;;;18.48
77789;BMP280;70537;44.384;0.512;2023-08-06T00:14:31;101770.66;;;18.48
77789;BMP280;70537;44.384;0.512;2023-08-06T00:16:57;101768.41;;;18.46
77789;BMP280;70537;44.384;0.512;2023-08-06T00:19:23;101746.75;;;18.32
77789;BMP280;70537;44.384;0.512;2023-08-06T00:21:48;101765.22;;;18.37
77789;BMP280;70537;44.384;0.512;2023-08-06T00:24:14;101756.00;;;18.34
77789;BMP280;70537;44.384;0.512;2023-08-06T00:26:39;101765.94;;;18.37
77789;BMP280;70537;44.384;0.512;2023-08-06T00:29:05;101765.00;;;18.35
77789;BMP280;70537;44.384;0.512;2023-08-06T00:31:30;101765.50;;;18.33
77789;BMP280;70537;44.384;0.512;2023-08-06T00:33:56;101763.25;;;18.32
77789;BMP280;70537;44.384;0.512;2023-08-06T00:36:21;101765.03;;;18.29
77789;BMP280;70537;44.384;0.512;2023-08-06T00:38:47;101764.09;;;18.21
77789;BMP280;70537;44.384;0.512;2023-08-06T00:41:12;101781.53;;;18.29
77789;BMP280;70537;44.384;0.512;2023-08-06T00:43:38;101780.75;;;18.29
77789;BMP280;70537;44.384;0.512;2023-08-06T00:46:03;101772.81;;;18.25
77789;BMP280;70537;44.384;0.512;2023-08-06T00:48:29;101790.28;;;18.28
77789;BMP280;70537;44.384;0.512;2023-08-06T00:50:54;101797.00;;;18.27
77789;BMP280;70537;44.384;0.512;2023-08-06T00:53:20;101796.03;;;18.24
77789;BMP280;70537;44.384;0.512;2023-08-06T00:55:45;101791.50;;;18.27
77789;BMP280;70537;44.384;0.512;2023-08-06T00:58:12;101794.34;;;18.21
77789;BMP280;70537;44.384;0.512;2023-08-06T01:00:38;101791.34;;;18.19
77789;BMP280;70537;44.384;0.512;2023-08-06T01:03:04;101793.56;;;18.20
77789;BMP280;70537;44.384;0.512;2023-08-06T01:05:29;101799.59;;;18.19
77789;BMP280;70537;44.384;0.512;2023-08-06T01:11:05;101803.06;;;18.19
77789;BMP280;70537;44.384;0.512;2023-08-06T01:16:15;101814.84;;;18.14
77789;BMP280;70537;44.384;0.512;2023-08-06T01:18:41;101814.84;;;18.14
77789;BMP280;70537;44.384;0.512;2023-08-06T01:21:08;101798.16;;;18.07
77789;BMP280;70537;44.384;0.512;2023-08-06T01:23:34;101813.13;;;18.11
77789;BMP280;70537;44.384;0.512;2023-08-06T01:31:24;101810.13;;;18.09
77789;BMP280;70537;44.384;0.512;2023-08-06T01:33:53;101816.88;;;18.08
77789;BMP280;70537;44.384;0.512;2023-08-06T01:36:19;101815.88;;;18.06
77789;BMP280;70537;44.384;0.512;2023-08-06T01:38:45;101816.41;;;18.04
77789;BMP280;70537;44.384;0.512;2023-08-06T01:41:11;101823.44;;;18.00
77789;BMP280;70537;44.384;0.512;2023-08-06T01:43:36;101811.19;;;17.95
77789;BMP280;70537;44.384;0.512;2023-08-06T01:46:02;101807.97;;;17.91
77789;BMP280;70537;44.384;0.512;2023-08-06T01:48:27;101811.72;;;17.93
77789;BMP280;70537;44.384;0.512;2023-08-06T01:50:53;101813.47;;;17.91
77789;BMP280;70537;44.384;0.512;2023-08-06T01:53:18;101813.97;;;17.89
77789;BMP280;70537;44.384;0.512;2023-08-06T01:55:48;101809.25;;;17.84
77789;BMP280;70537;44.384;0.512;2023-08-06T01:58:13;101811.75;;;17.82
77789;BMP280;70537;44.384;0.512;2023-08-06T02:00:40;101816.00;;;17.83
77789;BMP280;70537;44.384;0.512;2023-08-06T02:03:05;101815.03;;;17.81
77789;BMP280;70537;44.384;0.512;2023-08-06T02:05:31;101805.78;;;17.78
77789;BMP280;70537;44.384;0.512;2023-08-06T02:07:56;101813.50;;;17.74
77789;BMP280;70537;44.384;0.512;2023-08-06T02:10:22;101819.53;;;17.78
77789;BMP280;70537;44.384;0.512;2023-08-06T02:12:47;101826.00;;;17.75
77789;BMP280;70537;44.384;0.512;2023-08-06T02:15:13;101821.28;;;17.76
77789;BMP280;70537;44.384;0.512;2023-08-06T02:17:38;101821.53;;;17.78
77789;BMP280;70537;44.384;0.512;2023-08-06T02:20:05;101824.75;;;17.76
77789;BMP280;70537;44.384;0.512;2023-08-06T02:22:30;101832.00;;;17.73
77789;BMP280;70537;44.384;0.512;2023-08-06T02:24:56;101822.78;;;17.71
77789;BMP280;70537;44.384;0.512;2023-08-06T02:27:21;101832.78;;;17.68
77789;BMP280;70537;44.384;0.512;2023-08-06T02:29:47;101826.56;;;17.68
77789;BMP280;70537;44.384;0.512;2023-08-06T02:32:12;101830.03;;;17.68
77789;BMP280;70537;44.384;0.512;2023-08-06T02:34:38;101827.06;;;17.66
77789;BMP280;70537;44.384;0.512;2023-08-06T02:37:03;101823.56;;;17.66
77789;BMP280;70537;44.384;0.512;2023-08-06T02:39:29;101827.31;;;17.63
77789;BMP280;70537;44.384;0.512;2023-08-06T02:41:54;101814.59;;;17.60
77789;BMP280;70537;44.384;0.512;2023-08-06T02:44:20;101821.56;;;17.61
77789;BMP280;70537;44.384;0.512;2023-08-06T02:46:45;101810.34;;;17.59
77789;BMP280;70537;44.384;0.512;2023-08-06T02:49:11;101806.59;;;17.62
77789;BMP280;70537;44.384;0.512;2023-08-06T02:51:36;101812.34;;;17.58
77789;BMP280;70537;44.384;0.512;2023-08-06T02:54:02;101823.09;;;17.56
77789;BMP280;70537;44.384;0.512;2023-08-06T02:56:27;101822.59;;;17.58
77789;BMP280;70537;44.384;0.512;2023-08-06T02:58:52;101815.06;;;17.58
77789;BMP280;70537;44.384;0.512;2023-08-06T03:01:18;101821.31;;;17.59
77789;BMP280;70537;44.384;0.512;2023-08-06T03:03:43;101818.34;;;17.57
77789;BMP280;70537;44.384;0.512;2023-08-06T03:06:09;101811.38;;;17.56
77789;BMP280;70537;44.384;0.512;2023-08-06T03:08:34;101820.34;;;17.56
77789;BMP280;70537;44.384;0.512;2023-08-06T03:11:00;101810.38;;;17.53
77789;BMP280;70537;44.384;0.512;2023-08-06T03:13:26;101816.84;;;17.50
77789;BMP280;70537;44.384;0.512;2023-08-06T03:15:55;101805.38;;;17.52
77789;BMP280;70537;44.384;0.512;2023-08-06T03:18:20;101810.38;;;17.53
77789;BMP280;70537;44.384;0.512;2023-08-06T03:20:46;101811.63;;;17.52
77789;BMP280;70537;44.384;0.512;2023-08-06T03:23:12;101811.63;;;17.52
77789;BMP280;70537;44.384;0.512;2023-08-06T03:25:37;101822.34;;;17.50
77789;BMP280;70537;44.384;0.512;2023-08-06T03:28:03;101811.38;;;17.50
77789;BMP280;70537;44.384;0.512;2023-08-06T03:30:29;101815.63;;;17.51
77789;BMP280;70537;44.384;0.512;2023-08-06T03:32:54;101818.84;;;17.49
77789;BMP280;70537;44.384;0.512;2023-08-06T03:35:20;101813.38;;;17.49
77789;BMP280;70537;44.384;0.512;2023-08-06T03:37:45;101811.38;;;17.44
77789;BMP280;70537;44.384;0.512;2023-08-06T03:40:11;101813.38;;;17.44
77789;BMP280;70537;44.384;0.512;2023-08-06T03:42:36;101822.59;;;17.46
77789;BMP280;70537;44.384;0.512;2023-08-06T03:45:02;101821.59;;;17.44
77789;BMP280;70537;44.384;0.512;2023-08-06T03:47:28;101818.38;;;17.45
77789;BMP280;70537;44.384;0.512;2023-08-06T03:49:53;101816.38;;;17.46
77789;BMP280;70537;44.384;0.512;2023-08-06T03:52:19;101817.41;;;17.43
77789;BMP280;70537;44.384;0.512;2023-08-06T03:54:44;101833.88;;;17.43
77789;BMP280;70537;44.384;0.512;2023-08-06T03:57:10;101824.34;;;17.44
77789;BMP280;70537;44.384;0.512;2023-08-06T03:59:35;101823.63;;;17.38
77789;BMP280;70537;44.384;0.512;2023-08-06T04:02:01;101834.34;;;17.41
77789;BMP280;70537;44.384;0.512;2023-08-06T04:04:27;101833.13;;;17.37
77789;BMP280;70537;44.384;0.512;2023-08-06T04:06:52;101826.59;;;17.40
77789;BMP280;70537;44.384;0.512;2023-08-06T04:09:18;101840.09;;;17.38
77789;BMP280;70537;44.384;0.512;2023-08-06T04:11:44;101843.34;;;17.36
77789;BMP280;70537;44.384;0.512;2023-08-06T04:14:09;101838.34;;;17.29
77789;BMP280;70537;44.384;0.512;2023-08-06T04:16:35;101840.63;;;17.31
77789;BMP280;70537;44.384;0.512;2023-08-06T04:19:00;101836.91;;;17.28
77789;BMP280;70537;44.384;0.512;2023-08-06T04:21:26;101826.63;;;17.29
77789;BMP280;70537;44.384;0.512;2023-08-06T04:23:51;101828.66;;;17.28
77789;BMP280;70537;44.384;0.512;2023-08-06T04:26:16;101824.41;;;17.27
77789;BMP280;70537;44.384;0.512;2023-08-06T04:28:42;101834.63;;;17.27
77789;BMP280;70537;44.384;0.512;2023-08-06T04:31:07;101827.63;;;17.25
77789;BMP280;70537;44.384;0.512;2023-08-06T04:33:33;101835.59;;;17.29
77789;BMP280;70537;44.384;0.512;2023-08-06T04:35:59;101829.63;;;17.25
77789;BMP280;70537;44.384;0.512;2023-08-06T04:38:24;101829.63;;;17.25
77789;BMP280;70537;44.384;0.512;2023-08-06T04:40:50;101832.38;;;17.25
77789;BMP280;70537;44.384;0.512;2023-08-06T04:43:16;101830.88;;;17.24
77789;BMP280;70537;44.384;0.512;2023-08-06T04:45:48;101836.16;;;17.22
77789;BMP280;70537;44.384;0.512;2023-08-06T04:48:14;101837.41;;;17.15
77789;BMP280;70537;44.384;0.512;2023-08-06T04:50:47;101839.84;;;17.19
77789;BMP280;70537;44.384;0.512;2023-08-06T04:53:12;101844.38;;;17.16
77789;BMP280;70537;44.384;0.512;2023-08-06T04:55:38;101846.38;;;17.16
77789;BMP280;70537;44.384;0.512;2023-08-06T04:58:04;101837.38;;;17.10
77789;BMP280;70537;44.384;0.512;2023-08-06T05:00:29;101858.09;;;17.16
77789;BMP280;70537;44.384;0.512;2023-08-06T05:02:55;101850.63;;;17.11
77789;BMP280;70537;44.384;0.512;2023-08-06T05:05:20;101852.59;;;17.11
77789;BMP280;70537;44.384;0.512;2023-08-06T05:07:49;101861.34;;;17.09
77789;BMP280;70537;44.384;0.512;2023-08-06T05:10:15;101851.09;;;17.10
77789;BMP280;70537;44.384;0.512;2023-08-06T05:12:40;101852.09;;;17.07
77789;BMP280;70537;44.384;0.512;2023-08-06T05:15:06;101853.59;;;17.08
77789;BMP280;70537;44.384;0.512;2023-08-06T05:17:32;101864.56;;;17.02
77789;BMP280;70537;44.384;0.512;2023-08-06T05:19:58;101872.06;;;17.07
77789;BMP280;70537;44.384;0.512;2023-08-06T05:22:23;101876.53;;;17.10
77789;BMP280;70537;44.384;0.512;2023-08-06T05:24:49;101870.31;;;17.15
77789;BMP280;70537;44.384;0.512;2023-08-06T05:27:14;101862.84;;;17.16
77789;BMP280;70537;44.384;0.512;2023-08-06T05:29:40;101874.81;;;17.13
77789;BMP280;70537;44.384;0.512;2023-08-06T05:32:05;101883.53;;;17.17
77789;BMP280;70537;44.384;0.512;2023-08-06T05:34:31;101883.53;;;17.17
77789;BMP280;70537;44.384;0.512;2023-08-06T05:36:56;101880.28;;;17.18
77789;BMP280;70537;44.384;0.512;2023-08-06T05:39:22;101903.97;;;17.21
77789;BMP280;70537;44.384;0.512;2023-08-06T05:41:47;101895.47;;;17.19
77789;BMP280;70537;44.384;0.512;2023-08-06T05:44:13;101881.28;;;17.10
77789;BMP280;70537;44.384;0.512;2023-08-06T05:46:38;101899.47;;;17.18
77789;BMP280;70537;44.384;0.512;2023-08-06T05:49:04;101900.72;;;17.23
77789;BMP280;70537;44.384;0.512;2023-08-06T05:51:30;101898.72;;;17.23
77789;BMP280;70537;44.384;0.512;2023-08-06T05:53:55;101908.72;;;17.27
77789;BMP280;70537;44.384;0.512;2023-08-06T05:56:21;101902.97;;;17.19
77789;BMP280;70537;44.384;0.512;2023-08-06T05:58:46;101911.97;;;17.31
77789;BMP280;70537;44.384;0.512;2023-08-06T06:01:12;101915.94;;;17.35
77789;BMP280;70537;44.384;0.512;2023-08-06T06:03:38;101911.97;;;17.31
77789;BMP280;70537;44.384;0.512;2023-08-06T06:06:03;101931.69;;;17.35
77789;BMP280;70537;44.384;0.512;2023-08-06T06:08:29;101929.94;;;17.32
77789;BMP280;70537;44.384;0.512;2023-08-06T06:10:55;101938.38;;;17.34
77789;BMP280;70537;44.384;0.512;2023-08-06T06:13:20;101935.66;;;17.34
77789;BMP280;70537;44.384;0.512;2023-08-06T06:15:48;101948.88;;;17.35
77789;BMP280;70537;44.384;0.512;2023-08-06T06:18:14;101943.41;;;17.35
77789;BMP280;70537;44.384;0.512;2023-08-06T06:20:39;101950.66;;;17.33
77789;BMP280;70537;44.384;0.512;2023-08-06T06:23:05;101948.63;;;17.33
77789;BMP280;70537;44.384;0.512;2023-08-06T06:25:30;101949.91;;;17.38
77789;BMP280;70537;44.384;0.512;2023-08-06T06:27:56;101958.13;;;17.43
77789;BMP280;70537;44.384;0.512;2023-08-06T06:30:21;101956.38;;;17.35
77789;BMP280;70537;44.384;0.512;2023-08-06T06:32:47;101963.88;;;17.45
77789;BMP280;70537;44.384;0.512;2023-08-06T06:35:12;101954.13;;;17.39
77789;BMP280;70537;44.384;0.512;2023-08-06T06:37:38;101958.84;;;17.44
77789;BMP280;70537;44.384;0.512;2023-08-06T06:40:03;101955.88;;;17.47
77789;BMP280;70537;44.384;0.512;2023-08-06T06:42:29;101964.59;;;17.57
77789;BMP280;70537;44.384;0.512;2023-08-06T06:44:55;101960.13;;;17.60
77789;BMP280;70537;44.384;0.512;2023-08-06T06:47:20;101968.59;;;17.62
77789;BMP280;70537;44.384;0.512;2023-08-06T06:49:46;101991.56;;;17.64
77789;BMP280;70537;44.384;0.512;2023-08-06T06:52:11;101988.31;;;17.71
77789;BMP280;70537;44.384;0.512;2023-08-06T06:54:37;101994.53;;;17.72
77789;BMP280;70537;44.384;0.512;2023-08-06T06:57:02;101992.78;;;17.63
77789;BMP280;70537;44.384;0.512;2023-08-06T06:59:28;101986.81;;;17.70
77789;BMP280;70537;44.384;0.512;2023-08-06T07:01:53;101993.28;;;17.84
77789;BMP280;70537;44.384;0.512;2023-08-06T07:04:19;101993.53;;;17.86
77789;BMP280;70537;44.384;0.512;2023-08-06T07:06:44;101986.25;;;17.89
77789;BMP280;70537;44.384;0.512;2023-08-06T07:09:10;101992.75;;;18.03
77789;BMP280;70537;44.384;0.512;2023-08-06T07:11:35;101988.50;;;18.02
77789;BMP280;70537;44.384;0.512;2023-08-06T07:14:01;101985.03;;;17.95
77789;BMP280;70537;44.384;0.512;2023-08-06T07:16:26;101994.03;;;17.90
77789;BMP280;70537;44.384;0.512;2023-08-06T07:18:53;102001.25;;;17.88
77789;BMP280;70537;44.384;0.512;2023-08-06T07:21:19;101992.53;;;17.84
77789;BMP280;70537;44.384;0.512;2023-08-06T07:23:45;101994.78;;;17.96
77789;BMP280;70537;44.384;0.512;2023-08-06T07:26:11;101990.78;;;17.92
77789;BMP280;70537;44.384;0.512;2023-08-06T07:28:36;102000.25;;;17.91
77789;BMP280;70537;44.384;0.512;2023-08-06T07:31:02;101987.75;;;18.01
77789;BMP280;70537;44.384;0.512;2023-08-06T07:33:28;101987.97;;;18.14
77789;BMP280;70537;44.384;0.512;2023-08-06T07:35:53;101986.19;;;18.22
77789;BMP280;70537;44.384;0.512;2023-08-06T07:38:19;101989.41;;;18.38
77789;BMP280;70537;44.384;0.512;2023-08-06T07:40:44;101997.84;;;18.45
77789;BMP280;70537;44.384;0.512;2023-08-06T07:43:10;101989.53;;;18.62
77789;BMP280;70537;44.384;0.512;2023-08-06T07:45:36;101995.00;;;18.68
77789;BMP280;70537;44.384;0.512;2023-08-06T07:48:02;101987.44;;;18.80
77789;BMP280;70537;44.384;0.512;2023-08-06T07:50:28;101989.81;;;19.00
77789;BMP280;70537;44.384;0.512;2023-08-06T07:52:53;101994.72;;;19.13
77789;BMP280;70537;44.384;0.512;2023-08-06T07:55:19;101989.25;;;19.07
77789;BMP280;70537;44.384;0.512;2023-08-06T07:57:44;101998.44;;;19.15
77789;BMP280;70537;44.384;0.512;2023-08-06T08:00:10;102001.13;;;19.27
77789;BMP280;70537;44.384;0.512;2023-08-06T08:02:35;102001.28;;;19.34
77789;BMP280;70537;44.384;0.512;2023-08-06T08:05:01;101997.06;;;19.33
77789;BMP280;70537;44.384;0.512;2023-08-06T08:07:26;102009.09;;;19.30
77789;BMP280;70537;44.384;0.512;2023-08-06T08:09:54;102008.75;;;19.45
77789;BMP280;70537;44.384;0.512;2023-08-06T08:12:19;102007.34;;;19.57
77789;BMP280;70537;44.384;0.512;2023-08-06T08:14:45;101996.72;;;19.73
77789;BMP280;70537;44.384;0.512;2023-08-06T08:17:11;101995.69;;;20.00
77789;BMP280;70537;44.384;0.512;2023-08-06T08:19:37;102008.16;;;20.26
77789;BMP280;70537;44.384;0.512;2023-08-06T08:22:02;102013.41;;;20.05
77789;BMP280;70537;44.384;0.512;2023-08-06T08:24:28;102005.56;;;19.90
77789;BMP280;70537;44.384;0.512;2023-08-06T08:26:56;102008.31;;;19.90
77789;BMP280;70537;44.384;0.512;2023-08-06T08:29:22;102003.66;;;19.79
77789;BMP280;70537;44.384;0.512;2023-08-06T08:31:48;102017.56;;;19.38
77789;BMP280;70537;44.384;0.512;2023-08-06T08:34:17;102012.53;;;19.36
77789;BMP280;70537;44.384;0.512;2023-08-06T08:36:42;102019.03;;;19.39
77789;BMP280;70537;44.384;0.512;2023-08-06T08:39:08;102013.16;;;19.54
77789;BMP280;70537;44.384;0.512;2023-08-06T08:41:35;102006.41;;;19.79
77789;BMP280;70537;44.384;0.512;2023-08-06T08:44:02;102008.41;;;20.03
77789;BMP280;70537;44.384;0.512;2023-08-06T08:46:29;102003.91;;;20.43
77789;BMP280;70537;44.384;0.512;2023-08-06T08:48:59;102006.44;;;20.60
77789;BMP280;70537;44.384;0.512;2023-08-06T08:51:26;102012.56;;;20.72
77789;BMP280;70537;44.384;0.512;2023-08-06T08:53:53;102004.38;;;20.80
77789;BMP280;70537;44.384;0.512;2023-08-06T08:56:20;102002.75;;;20.14
77789;BMP280;70537;44.384;0.512;2023-08-06T08:58:46;102013.88;;;20.28
77789;BMP280;70537;44.384;0.512;2023-08-06T09:01:11;101993.78;;;20.52
77789;BMP280;70537;44.384;0.512;2023-08-06T09:03:38;101999.00;;;20.87
77789;BMP280;70537;44.384;0.512;2023-08-06T09:06:04;102007.41;;;21.14
77789;BMP280;70537;44.384;0.512;2023-08-06T09:08:35;102006.53;;;21.64
77789;BMP280;70537;44.384;0.512;2023-08-06T09:11:02;101989.72;;;21.76
77789;BMP280;70537;44.384;0.512;2023-08-06T09:13:28;101997.16;;;21.67
77789;BMP280;70537;44.384;0.512;2023-08-06T09:15:53;101995.41;;;21.25
77789;BMP280;70537;44.384;0.512;2023-08-06T09:18:26;101998.34;;;21.13
77789;BMP280;70537;44.384;0.512;2023-08-06T09:20:53;101997.53;;;20.86
77789;BMP280;70537;44.384;0.512;2023-08-06T09:23:18;102002.91;;;20.79
77789;BMP280;70537;44.384;0.512;2023-08-06T09:25:45;102009.28;;;20.55
77789;BMP280;70537;44.384;0.512;2023-08-06T09:28:11;101998.25;;;20.36
77789;BMP280;70537;44.384;0.512;2023-08-06T09:30:37;102007.72;;;20.59
77789;BMP280;70537;44.384;0.512;2023-08-06T09:33:07;101994.88;;;20.62
77789;BMP280;70537;44.384;0.512;2023-08-06T09:35:35;102009.50;;;20.57
77789;BMP280;70537;44.384;0.512;2023-08-06T09:38:08;102017.13;;;20.51
77789;BMP280;70537;44.384;0.512;2023-08-06T09:40:35;102019.19;;;20.26
77789;BMP280;70537;44.384;0.512;2023-08-06T09:43:02;102025.94;;;20.25
77789;BMP280;70537;44.384;0.512;2023-08-06T09:45:34;102022.72;;;20.96
77789;BMP280;70537;44.384;0.512;2023-08-06T09:48:03;102016.66;;;21.30
77789;BMP280;70537;44.384;0.512;2023-08-06T09:50:30;102018.31;;;21.78
77789;BMP280;70537;44.384;0.512;2023-08-06T09:52:57;102018.31;;;21.78
77789;BMP280;70537;44.384;0.512;2023-08-06T09:55:23;101995.88;;;22.08
77789;BMP280;70537;44.384;0.512;2023-08-06T09:57:50;101998.84;;;21.57
77789;BMP280;70537;44.384;0.512;2023-08-06T10:00:16;101990.41;;;21.36
77789;BMP280;70537;44.384;0.512;2023-08-06T10:02:42;102002.16;;;21.82
77789;BMP280;70537;44.384;0.512;2023-08-06T10:05:09;101999.44;;;22.30
77789;BMP280;70537;44.384;0.512;2023-08-06T10:07:35;101990.19;;;22.82
77789;BMP280;70537;44.384;0.512;2023-08-06T10:10:02;101997.50;;;23.01
77789;BMP280;70537;44.384;0.512;2023-08-06T10:12:30;101985.44;;;22.69
77789;BMP280;70537;44.384;0.512;2023-08-06T10:14:59;101972.00;;;22.18
77789;BMP280;70537;44.384;0.512;2023-08-06T10:17:26;101998.22;;;22.04
77789;BMP280;70537;44.384;0.512;2023-08-06T10:19:52;102000.47;;;21.79
77789;BMP280;70537;44.384;0.512;2023-08-06T10:22:20;101997.13;;;22.07
77789;BMP280;70537;44.384;0.512;2023-08-06T10:27:13;101991.78;;;22.23
77789;BMP280;70537;44.384;0.512;2023-08-06T10:29:38;102005.31;;;22.13
77789;BMP280;70537;44.384;0.512;2023-08-06T10:32:04;102001.44;;;22.29
77789;BMP280;70537;44.384;0.512;2023-08-06T10:34:58;102004.25;;;22.03
77789;BMP280;70537;44.384;0.512;2023-08-06T10:37:30;101997.97;;;21.49
77789;BMP280;70537;44.384;0.512;2023-08-06T10:39:59;102003.75;;;22.04
77789;BMP280;70537;44.384;0.512;2023-08-06T10:42:29;102002.25;;;22.71
77789;BMP280;70537;44.384;0.512;2023-08-06T10:45:14;101995.56;;;23.37
77789;BMP280;70537;44.384;0.512;2023-08-06T10:47:40;101993.09;;;23.98
77789;BMP280;70537;44.384;0.512;2023-08-06T10:50:07;101996.06;;;24.08
77789;BMP280;70537;44.384;0.512;2023-08-06T10:52:34;101997.53;;;23.29
77789;BMP280;70537;44.384;0.512;2023-08-06T10:54:59;102000.50;;;22.82
77789;BMP280;70537;44.384;0.512;2023-08-06T10:57:25;101990.53;;;22.44
77789;BMP280;70537;44.384;0.512;2023-08-06T10:59:50;101989.00;;;22.23
77789;BMP280;70537;44.384;0.512;2023-08-06T11:02:16;101994.81;;;22.87
77789;BMP280;70537;44.384;0.512;2023-08-06T11:04:42;101980.72;;;23.56
77789;BMP280;70537;44.384;0.512;2023-08-06T11:07:07;101995.03;;;24.42
77789;BMP280;70537;44.384;0.512;2023-08-06T11:09:33;101978.78;;;24.76
77789;BMP280;70537;44.384;0.512;2023-08-06T11:11:58;101991.28;;;24.09
77789;BMP280;70537;44.384;0.512;2023-08-06T11:14:24;101978.81;;;24.84
77789;BMP280;70537;44.384;0.512;2023-08-06T11:16:50;101970.63;;;24.48
77789;BMP280;70537;44.384;0.512;2023-08-06T11:19:16;101966.19;;;24.52
77789;BMP280;70537;44.384;0.512;2023-08-06T11:21:43;101974.53;;;24.68
77789;BMP280;70537;44.384;0.512;2023-08-06T11:24:12;101986.72;;;24.95
77789;BMP280;70537;44.384;0.512;2023-08-06T11:26:37;101975.97;;;24.92
77789;BMP280;70537;44.384;0.512;2023-08-06T11:29:05;101962.50;;;24.42
77789;BMP280;70537;44.384;0.512;2023-08-06T11:31:30;101971.25;;;23.95
77789;BMP280;70537;44.384;0.512;2023-08-06T11:33:56;101969.56;;;23.48
77789;BMP280;70537;44.384;0.512;2023-08-06T11:36:31;101968.91;;;23.27
77789;BMP280;70537;44.384;0.512;2023-08-06T11:38:58;101973.47;;;23.16
77789;BMP280;70537;44.384;0.512;2023-08-06T11:41:24;101963.56;;;24.16
77789;BMP280;70537;44.384;0.512;2023-08-06T11:43:49;101963.56;;;24.09
77789;BMP280;70537;44.384;0.512;2023-08-06T11:46:15;101972.13;;;24.64
77789;BMP280;70537;44.384;0.512;2023-08-06T11:48:54;101961.34;;;25.14
77789;BMP280;70537;44.384;0.512;2023-08-06T11:51:26;101976.00;;;25.55
77789;BMP280;70537;44.384;0.512;2023-08-06T11:53:56;101953.25;;;24.55
77789;BMP280;70537;44.384;0.512;2023-08-06T11:56:22;101961.19;;;24.74
77789;BMP280;70537;44.384;0.512;2023-08-06T11:58:48;101957.03;;;25.28
77789;BMP280;70537;44.384;0.512;2023-08-06T12:01:14;101954.69;;;25.98
77789;BMP280;70537;44.384;0.512;2023-08-06T12:03:40;101946.84;;;26.04
77789;BMP280;70537;44.384;0.512;2023-08-06T12:06:06;101947.50;;;26.62
77789;BMP280;70537;44.384;0.512;2023-08-06T12:08:32;101930.66;;;26.95
77789;BMP280;70537;44.384;0.512;2023-08-06T12:10:58;101933.16;;;27.00
77789;BMP280;70537;44.384;0.512;2023-08-06T12:13:24;101921.78;;;26.29
77789;BMP280;70537;44.384;0.512;2023-08-06T12:15:50;101940.88;;;26.07
77789;BMP280;70537;44.384;0.512;2023-08-06T12:18:18;101924.72;;;25.81
77789;BMP280;70537;44.384;0.512;2023-08-06T12:20:44;101934.94;;;26.11
77789;BMP280;70537;44.384;0.512;2023-08-06T12:23:09;101926.47;;;25.69
77789;BMP280;70537;44.384;0.512;2023-08-06T12:25:35;101918.81;;;25.37
77789;BMP280;70537;44.384;0.512;2023-08-06T12:28:01;101928.53;;;25.13
77789;BMP280;70537;44.384;0.512;2023-08-06T12:30:27;101920.19;;;25.93
77789;BMP280;70537;44.384;0.512;2023-08-06T12:32:52;101923.31;;;26.47
77789;BMP280;70537;44.384;0.512;2023-08-06T12:35:18;101932.34;;;26.05
77789;BMP280;70537;44.384;0.512;2023-08-06T12:37:45;101927.00;;;26.50
77789;BMP280;70537;44.384;0.512;2023-08-06T12:40:10;101934.41;;;26.72
77789;BMP280;70537;44.384;0.512;2023-08-06T12:42:36;101926.69;;;26.98
77789;BMP280;70537;44.384;0.512;2023-08-06T12:45:02;101917.88;;;27.63
77789;BMP280;70537;44.384;0.512;2023-08-06T12:47:28;101927.50;;;26.73
77789;BMP280;70537;44.384;0.512;2023-08-06T12:49:54;101921.13;;;26.21
77789;BMP280;70537;44.384;0.512;2023-08-06T12:52:19;101929.19;;;26.34
77789;BMP280;70537;44.384;0.512;2023-08-06T12:54:46;101929.34;;;26.61
77789;BMP280;70537;44.384;0.512;2023-08-06T12:57:12;101917.72;;;27.16
77789;BMP280;70537;44.384;0.512;2023-08-06T12:59:38;101912.53;;;26.26
77789;BMP280;70537;44.384;0.512;2023-08-06T13:02:05;101911.25;;;26.45
77789;BMP280;70537;44.384;0.512;2023-08-06T13:04:32;101911.44;;;26.99
77789;BMP280;70537;44.384;0.512;2023-08-06T13:06:59;101916.25;;;27.60
77789;BMP280;70537;44.384;0.512;2023-08-06T13:09:25;101906.31;;;28.13
77789;BMP280;70537;44.384;0.512;2023-08-06T13:11:52;101905.16;;;28.25
77789;BMP280;70537;44.384;0.512;2023-08-06T13:14:18;101890.22;;;27.84
77789;BMP280;70537;44.384;0.512;2023-08-06T13:16:44;101891.25;;;27.52
77789;BMP280;70537;44.384;0.512;2023-08-06T13:19:10;101886.50;;;26.74
77789;BMP280;70537;44.384;0.512;2023-08-06T13:24:07;101900.91;;;26.80
77789;BMP280;70537;44.384;0.512;2023-08-06T13:26:33;101909.41;;;26.99
77789;BMP280;70537;44.384;0.512;2023-08-06T13:28:59;101905.75;;;27.78
77789;BMP280;70537;44.384;0.512;2023-08-06T13:31:28;101899.69;;;27.71
77789;BMP280;70537;44.384;0.512;2023-08-06T13:33:58;101899.91;;;27.29
77789;BMP280;70537;44.384;0.512;2023-08-06T13:36:27;101905.88;;;26.81
77789;BMP280;70537;44.384;0.512;2023-08-06T13:38:55;101899.84;;;26.33
77789;BMP280;70537;44.384;0.512;2023-08-06T13:41:22;101898.66;;;26.19
77789;BMP280;70537;44.384;0.512;2023-08-06T13:43:51;101906.75;;;25.74
77789;BMP280;70537;44.384;0.512;2023-08-06T13:46:18;101906.09;;;25.26
77789;BMP280;70537;44.384;0.512;2023-08-06T13:48:50;101922.16;;;25.75
77789;BMP280;70537;44.384;0.512;2023-08-06T13:51:17;101915.50;;;26.46
77789;BMP280;70537;44.384;0.512;2023-08-06T13:53:44;101907.03;;;26.96
77789;BMP280;70537;44.384;0.512;2023-08-06T13:56:11;101893.38;;;27.71
77789;BMP280;70537;44.384;0.512;2023-08-06T13:58:38;101888.25;;;27.40
77789;BMP280;70537;44.384;0.512;2023-08-06T14:01:05;101893.94;;;27.33
77789;BMP280;70537;44.384;0.512;2023-08-06T14:03:32;101890.22;;;26.51
77789;BMP280;70537;44.384;0.512;2023-08-06T14:05:59;101890.09;;;26.24
77789;BMP280;70537;44.384;0.512;2023-08-06T14:08:25;101893.03;;;25.44